Time;durP1;ratioP1;P1;durP2;ratioP2;P2;SDS_P1;SDS_P2;PMS_P1;PMS_P2;Temp;Humidity;BMP_temperature;BMP_pressure;BME280_temperature;BME280_humidity;BME280_pressure;Samples;Min_cycle;Max_cycle;Signal;HPM_P1;HPM_P2
2023/01/25 00:00:51;;;;;;;21.23;19.02;;;;;;;1.99;94.32;103637.56;4717586;30;20491;-64
2023/01/25 00:03:19;;;;;;;21.60;19.30;;;;;;;2.00;94.16;103644.66;4703383;30;20136;-65
2023/01/25 00:05:47;;;;;;;20.85;18.70;;;;;;;2.04;94.96;103636.16;4719316;30;20144;-65
2023/01/25 00:08:15;;;;;;;21.50;19.10;;;;;;;2.07;94.39;103640.44;4718770;30;20064;-65
2023/01/25 00:10:43;;;;;;;22.98;20.58;;;;;;;1.95;93.37;103639.72;4718765;30;20084;-65
2023/01/25 00:13:10;;;;;;;22.75;20.35;;;;;;;1.83;93.99;103638.16;4703897;30;20139;-65
2023/01/25 00:15:38;;;;;;;22.33;19.88;;;;;;;1.81;95.01;103637.44;4699623;30;20057;-64
2023/01/25 00:18:06;;;;;;;22.83;20.45;;;;;;;1.82;95.28;103637.28;4714950;30;20060;-65
2023/01/25 00:20:33;;;;;;;22.35;20.00;;;;;;;1.83;95.44;103641.69;4718834;30;20068;-64
2023/01/25 00:23:01;;;;;;;23.30;20.70;;;;;;;1.81;95.24;103632.06;4719073;30;20075;-64
2023/01/25 00:25:29;;;;;;;23.35;20.00;;;;;;;1.79;95.37;103632.19;4718220;30;20127;-63
2023/01/25 00:27:56;;;;;;;21.77;19.38;;;;;;;1.76;95.40;103631.63;4703531;30;20085;-64
2023/01/25 00:30:24;;;;;;;21.73;19.52;;;;;;;1.77;95.25;103627.94;4719018;30;20057;-63
2023/01/25 00:33:06;;;;;;;22.90;20.42;;;;;;;1.73;95.17;103626.53;4717357;30;20053;-65
2023/01/25 00:35:34;;;;;;;23.17;20.67;;;;;;;1.64;95.32;103626.38;4717859;30;20076;-63
2023/01/25 00:38:06;;;;;;;23.42;20.92;;;;;;;1.60;95.52;103622.25;4717214;30;20085;-63
2023/01/25 00:40:33;;;;;;;23.10;20.77;;;;;;;1.65;96.28;103620.00;4718915;30;20057;-63
2023/01/25 00:43:01;;;;;;;22.23;19.83;;;;;;;1.76;96.21;103620.88;4717598;30;20088;-64
2023/01/25 00:45:31;;;;;;;23.42;21.02;;;;;;;1.82;95.21;103621.16;4706118;30;20149;-64
2023/01/25 00:47:59;;;;;;;24.08;21.58;;;;;;;1.69;93.74;103610.69;4719746;30;20057;-63
2023/01/25 00:50:27;;;;;;;23.00;20.60;;;;;;;1.38;94.13;103622.53;4717655;30;20413;-64
2023/01/25 00:52:56;;;;;;;24.25;21.65;;;;;;;1.33;95.44;103614.88;4717874;30;20057;-63
2023/01/25 00:55:24;;;;;;;23.58;21.08;;;;;;;1.37;95.65;103620.81;4703394;30;20079;-65
2023/01/25 00:57:52;;;;;;;23.25;20.85;;;;;;;1.47;95.99;103621.69;4718500;30;20064;-64
2023/01/25 01:00:19;;;;;;;23.73;21.20;;;;;;;1.58;95.59;103618.03;4687929;30;20049;-66
2023/01/25 01:02:47;;;;;;;25.48;22.77;;;;;;;1.51;94.66;103612.34;4716946;30;20128;-65
2023/01/25 01:05:15;;;;;;;24.90;22.30;;;;;;;1.47;95.61;103614.47;4716471;30;20053;-64
2023/01/25 01:07:43;;;;;;;25.00;22.40;;;;;;;1.59;95.64;103612.53;4717451;30;20459;-63
2023/01/25 01:10:12;;;;;;;26.45;23.08;;;;;;;1.58;94.35;103608.13;4712681;30;20578;-65
2023/01/25 01:12:39;;;;;;;27.25;24.40;;;;;;;1.55;94.79;103613.78;4716644;30;20085;-64
2023/01/25 01:15:08;;;;;;;26.27;23.48;;;;;;;1.47;94.94;103616.31;4715761;30;20487;-64
2023/01/25 01:17:36;;;;;;;26.00;23.30;;;;;;;1.49;95.65;103608.94;4702141;30;20053;-64
2023/01/25 01:20:04;;;;;;;26.20;23.52;;;;;;;1.54;95.65;103609.41;4673512;30;20071;-63
2023/01/25 01:22:31;;;;;;;26.67;23.88;;;;;;;1.58;95.90;103608.13;4717153;30;20057;-64
2023/01/25 01:24:59;;;;;;;27.08;24.13;;;;;;;1.65;95.55;103608.41;4716189;30;20060;-64
2023/01/25 01:27:27;;;;;;;27.15;24.10;;;;;;;1.70;95.23;103603.47;4719432;30;20127;-62
2023/01/25 01:29:54;;;;;;;26.33;23.52;;;;;;;1.75;94.72;103609.25;4700417;30;20060;-64
2023/01/25 01:32:22;;;;;;;26.90;24.10;;;;;;;1.76;94.29;103610.97;4722304;30;20049;-62
2023/01/25 01:34:51;;;;;;;27.60;24.65;;;;;;;1.64;93.91;103604.03;4715179;30;20111;-65
2023/01/25 01:37:19;;;;;;;27.25;24.35;;;;;;;1.50;94.86;103613.34;4714192;30;20057;-65
2023/01/25 01:39:46;;;;;;;27.27;24.35;;;;;;;1.49;95.25;103608.94;4718221;30;20067;-65
2023/01/25 01:42:14;;;;;;;28.08;25.15;;;;;;;1.51;95.63;103617.72;4722286;30;20109;-64
2023/01/25 01:44:42;;;;;;;29.02;26.02;;;;;;;1.53;95.89;103607.69;4715466;30;20133;-67
2023/01/25 01:47:17;;;;;;;28.20;24.88;;;;;;;1.57;95.75;103605.59;4720370;30;20056;-63
2023/01/25 01:49:49;;;;;;;;;;;;;;;1.65;96.26;103606.56;4713736;30;20136;-63
2023/01/25 01:52:19;;;;;;;27.45;24.45;;;;;;;1.75;95.92;103609.25;4719341;30;20371;-62
2023/01/25 01:54:52;;;;;;;28.50;25.48;;;;;;;1.80;95.02;103606.16;4685431;30;20057;-65
2023/01/25 01:57:26;;;;;;;29.17;26.00;;;;;;;1.81;94.91;103602.50;4717367;30;20152;-62
2023/01/25 02:00:00;;;;;;;29.20;26.10;;;;;;;1.79;93.95;103607.16;4697483;30;20061;-64
2023/01/25 02:02:41;;;;;;;26.77;23.92;;;;;;;1.70;94.42;103612.38;4715514;30;20053;-62
2023/01/25 02:05:34;;;;;;;29.75;26.58;;;;;;;1.55;94.06;103611.09;4711109;30;20056;-64
2023/01/25 02:08:05;;;;;;;30.88;27.58;;;;;;;1.41;94.85;103611.50;4703424;30;20155;-64
2023/01/25 02:10:34;;;;;;;32.60;26.88;;;;;;;1.40;95.73;103607.13;4718455;30;20060;-63
2023/01/25 02:13:02;;;;;;;29.33;26.23;;;;;;;1.43;95.29;103598.78;4717309;30;20049;-64
2023/01/25 02:15:46;;;;;;;28.42;25.38;;;;;;;1.48;95.72;103601.88;4704023;30;20083;-63
2023/01/25 02:18:14;;;;;;;30.60;27.33;;;;;;;1.56;95.77;103603.88;4687582;30;20148;-65
2023/01/25 02:20:43;;;;;;;28.15;25.25;;;;;;;1.64;95.38;103599.50;4719254;30;20053;-65
2023/01/25 02:23:36;;;;;;;28.85;25.77;;;;;;;1.64;94.69;103594.13;4703650;30;20559;-63
2023/01/25 02:26:05;;;;;;;29.08;25.98;;;;;;;1.59;94.21;103593.72;4718385;30;20081;-63
2023/01/25 02:28:38;;;;;;;29.65;26.48;;;;;;;1.58;94.34;103581.25;4704340;30;20091;-63
2023/01/25 02:31:06;;;;;;;29.42;26.33;;;;;;;1.56;94.62;103583.22;4669790;30;20050;-64
2023/01/25 02:33:34;;;;;;;30.25;26.40;;;;;;;1.51;94.42;103579.25;4709442;30;21852;-64
2023/01/25 02:36:06;;;;;;;29.27;26.17;;;;;;;1.50;95.00;103583.78;4718354;30;20097;-62
2023/01/25 02:38:40;;;;;;;29.90;26.63;;;;;;;1.54;94.78;103587.91;4720418;30;20057;-63
2023/01/25 02:41:41;;;;;;;29.08;25.95;;;;;;;1.54;95.13;103574.47;4702703;30;20062;-68
2023/01/25 02:44:15;;;;;;;27.98;24.95;;;;;;;1.62;95.47;103571.91;4704218;30;20065;-63
2023/01/25 02:46:49;;;;;;;29.17;26.08;;;;;;;1.72;95.22;103576.47;4706529;30;20081;-65
2023/01/25 02:49:17;;;;;;;32.47;29.05;;;;;;;1.77;94.64;103569.66;4711486;30;20097;-65
2023/01/25 02:51:54;;;;;;;31.63;28.23;;;;;;;1.78;94.39;103565.13;4725411;30;20057;-63
2023/01/25 02:54:24;;;;;;;31.50;28.20;;;;;;;1.79;94.40;103574.91;4716812;30;20056;-65
2023/01/25 02:56:52;;;;;;;33.58;29.95;;;;;;;1.82;94.37;103575.44;4724524;30;20092;-65
2023/01/25 02:59:22;;;;;;;33.60;30.00;;;;;;;1.84;94.18;103575.31;4720578;30;20075;-68
2023/01/25 03:01:54;;;;;;;32.22;28.88;;;;;;;1.79;92.83;103580.28;4701456;30;20057;-64
2023/01/25 03:04:22;;;;;;;33.63;30.02;;;;;;;1.74;93.66;103572.63;4690020;30;20071;-65
2023/01/25 03:06:50;;;;;;;34.58;30.85;;;;;;;1.72;93.30;103574.63;4719855;30;20064;-64
2023/01/25 03:09:19;;;;;;;35.20;30.45;;;;;;;1.66;93.21;103567.97;4704584;30;20108;-64
2023/01/25 03:11:49;;;;;;;36.53;32.63;;;;;;;1.44;93.92;103569.09;4717897;30;20126;-65
2023/01/25 03:14:19;;;;;;;35.85;31.83;;;;;;;1.21;94.85;103568.47;4690279;30;20057;-65
2023/01/25 03:16:46;;;;;;;34.38;30.42;;;;;;;1.17;95.90;103556.31;4701932;30;20060;-65
2023/01/25 03:19:16;;;;;;;34.78;31.05;;;;;;;1.26;96.69;103563.53;4717529;30;20139;-62
2023/01/25 03:21:45;;;;;;;34.40;30.70;;;;;;;1.39;96.77;103548.97;4718787;30;20107;-63
2023/01/25 03:24:13;;;;;;;35.28;31.48;;;;;;;1.51;96.36;103553.22;4704400;30;20178;-65
2023/01/25 03:29:40;;;;;;;36.97;32.85;;;;;;;1.58;94.44;103546.31;4690228;30;20077;-65
2023/01/25 03:32:12;;;;;;;36.35;32.38;;;;;;;1.51;94.26;103531.75;4703031;30;20068;-61
2023/01/25 03:34:40;;;;;;;36.47;31.15;;;;;;;1.46;94.70;103534.00;4689909;30;20088;-63
2023/01/25 03:37:09;;;;;;;35.53;31.52;;;;;;;1.47;95.13;103530.34;4717069;30;20529;-64
2023/01/25 03:39:38;;;;;;;36.65;32.65;;;;;;;1.48;94.85;103526.66;4715698;30;20566;-63
2023/01/25 03:42:06;;;;;;;40.38;34.13;;;;;;;1.47;95.05;103527.66;4701587;30;20129;-65
2023/01/25 03:44:34;;;;;;;36.33;31.98;;;;;;;1.49;95.35;103531.03;4705358;30;20076;-63
2023/01/25 03:47:02;;;;;;;36.42;32.30;;;;;;;1.53;95.50;103524.41;4718917;30;20418;-64
2023/01/25 03:49:30;;;;;;;37.88;33.60;;;;;;;1.61;95.62;103521.00;4716114;30;20053;-65
2023/01/25 03:51:58;;;;;;;38.95;34.72;;;;;;;1.65;94.93;103528.63;4718019;30;20068;-63
2023/01/25 03:54:34;;;;;;;37.70;33.53;;;;;;;1.62;94.92;103523.56;4685022;30;20645;-65
2023/01/25 03:57:02;;;;;;;38.60;34.10;;;;;;;1.61;94.79;103531.75;4716310;30;20135;-64
2023/01/25 03:59:34;;;;;;;39.15;34.85;;;;;;;1.63;94.98;103525.22;4703510;30;20068;-64
2023/01/25 04:02:02;;;;;;;45.95;38.50;;;;;;;1.68;95.15;103532.88;4715075;30;20507;-65
2023/01/25 04:04:29;;;;;;;43.28;38.58;;;;;;;1.74;95.02;103534.16;4714166;30;20056;-65
2023/01/25 04:06:59;;;;;;;45.85;40.35;;;;;;;1.74;94.27;103529.63;4708390;30;20095;-64
2023/01/25 04:09:28;;;;;;;44.10;39.28;;;;;;;1.74;94.00;103524.25;4716440;30;20499;-64
2023/01/25 04:11:57;;;;;;;45.67;39.85;;;;;;;1.74;94.25;103526.94;4715585;30;20061;-64
2023/01/25 04:14:26;;;;;;;42.83;38.13;;;;;;;1.70;93.45;103529.06;4700733;30;20049;-67
2023/01/25 04:17:12;;;;;;;42.55;37.80;;;;;;;1.64;93.73;103518.88;4713294;30;20056;-62
2023/01/25 04:20:07;;;;;;;;;;;;;;;1.65;94.36;103512.50;4712846;30;20443;-64
2023/01/25 04:22:40;;;;;;;43.22;38.53;;;;;;;1.68;94.25;103506.00;4715939;30;19954;-64
2023/01/25 04:25:09;;;;;;;48.90;41.38;;;;;;;1.68;93.70;103501.50;4717497;30;20132;-64
2023/01/25 04:27:43;;;;;;;51.97;43.58;;;;;;;1.68;93.72;103511.38;4713622;30;20467;-64
2023/01/25 04:30:14;;;;;;;56.38;48.05;;;;;;;1.61;92.69;103508.44;4696820;30;20053;-64
2023/01/25 04:32:44;;;;;;;55.72;48.72;;;;;;;1.48;92.44;103507.84;4702171;30;20503;-63
2023/01/25 04:35:20;;;;;;;57.03;50.72;;;;;;;1.35;93.28;103502.78;4700584;30;20065;-65
2023/01/25 04:37:55;;;;;;;60.08;51.22;;;;;;;1.16;93.88;103506.28;4717599;30;20062;-65
2023/01/25 04:40:26;;;;;;;59.53;51.03;;;;;;;1.07;94.78;103504.41;4687231;30;20132;-65
2023/01/25 04:42:53;;;;;;;58.53;49.97;;;;;;;1.06;95.50;103497.38;4702673;30;20458;-65
2023/01/25 04:45:23;;;;;;;56.92;50.13;;;;;;;1.15;96.47;103499.19;4716395;30;20085;-63
2023/01/25 04:47:56;;;;;;;58.03;50.08;;;;;;;1.26;96.39;103496.38;4699664;30;20053;-68
2023/01/25 04:50:24;;;;;;;62.97;52.25;;;;;;;1.37;96.02;103498.09;4714220;30;20049;-64
2023/01/25 04:52:52;;;;;;;63.85;53.55;;;;;;;1.45;95.65;103490.19;4713233;30;20050;-63
2023/01/25 04:55:21;;;;;;;66.88;56.60;;;;;;;1.50;94.84;103487.06;4710500;30;20116;-64
2023/01/25 04:57:50;;;;;;;65.20;56.17;;;;;;;1.52;94.60;103490.47;4711960;30;20077;-63
2023/01/25 05:00:19;;;;;;;58.10;51.30;;;;;;;1.54;94.29;103499.25;4711846;30;20068;-64
2023/01/25 05:02:49;;;;;;;61.53;53.47;;;;;;;1.58;94.38;103489.88;4701980;30;20503;-63
2023/01/25 05:05:16;;;;;;;66.35;56.85;;;;;;;1.61;94.42;103478.00;4713131;30;20057;-62
2023/01/25 05:07:46;;;;;;;68.65;58.65;;;;;;;1.63;94.03;103487.63;4712472;30;20065;-66
2023/01/25 05:10:14;;;;;;;72.78;61.63;;;;;;;1.60;93.75;103485.22;4701876;30;20431;-63
2023/01/25 05:12:59;;;;;;;69.57;60.80;;;;;;;1.60;93.89;103476.31;4711687;30;20104;-64
2023/01/25 05:15:26;;;;;;;74.72;62.92;;;;;;;1.62;94.26;103479.72;4710106;30;20170;-64
2023/01/25 05:17:54;;;;;;;76.45;64.78;;;;;;;1.58;92.70;103484.50;4685509;30;20048;-64
2023/01/25 05:20:22;;;;;;;78.78;65.45;;;;;;;1.37;93.27;103482.00;4706355;30;20118;-64
2023/01/25 05:22:50;;;;;;;77.15;64.65;;;;;;;1.25;94.05;103478.59;4717174;30;20456;-64
2023/01/25 05:28:08;;;;;;;75.28;64.80;;;;;;;1.21;94.78;103470.94;4687794;30;20580;-63
2023/01/25 05:31:03;;;;;;;74.20;63.38;;;;;;;1.31;95.66;103470.97;4715603;30;20053;-64
2023/01/25 05:33:34;;;;;;;76.85;62.85;;;;;;;1.41;95.79;103474.47;4701626;30;20085;-65
2023/01/25 05:36:01;;;;;;;68.72;59.80;;;;;;;1.45;95.32;103473.22;4716411;30;20411;-63
2023/01/25 05:38:33;;;;;;;74.68;64.05;;;;;;;1.49;95.10;103467.41;4713996;30;20075;-63
2023/01/25 05:41:02;;;;;;;78.10;64.65;;;;;;;1.52;94.94;103473.50;4712634;30;20068;-64
2023/01/25 05:43:30;;;;;;;78.68;66.55;;;;;;;1.51;94.56;103467.25;4684800;30;20081;-63
2023/01/25 05:45:58;;;;;;;74.55;64.00;;;;;;;1.51;94.37;103466.41;4700283;30;20567;-64
2023/01/25 05:48:26;;;;;;;79.45;66.43;;;;;;;1.51;94.06;103469.09;4716651;30;20107;-63
2023/01/25 05:50:57;;;;;;;81.72;68.05;;;;;;;1.49;93.93;103470.09;4716487;30;20475;-65
2023/01/25 05:53:26;;;;;;;79.32;66.68;;;;;;;1.49;94.15;103463.88;4697583;30;20057;-66
2023/01/25 05:55:54;;;;;;;79.10;67.07;;;;;;;1.49;93.80;103463.88;4700967;30;20045;-64
2023/01/25 05:58:22;;;;;;;78.88;65.82;;;;;;;1.45;93.44;103470.53;4718831;30;20049;-64
2023/01/25 06:00:50;;;;;;;77.82;65.88;;;;;;;1.42;93.52;103468.97;4701781;30;20068;-66
2023/01/25 06:03:29;;;;;;;79.03;66.70;;;;;;;1.45;93.84;103462.47;4713185;30;20135;-63
2023/01/25 06:06:00;;;;;;;75.20;64.35;;;;;;;1.49;93.95;103472.78;4710550;30;20450;-65
2023/01/25 06:08:29;;;;;;;74.53;63.72;;;;;;;1.51;93.30;103467.25;4710868;30;20152;-63
2023/01/25 06:10:57;;;;;;;78.28;65.68;;;;;;;1.51;93.23;103469.09;4708100;30;20129;-64
2023/01/25 06:13:26;;;;;;;77.15;64.78;;;;;;;1.50;93.21;103465.56;4686570;30;20139;-66
2023/01/25 06:15:54;;;;;;;78.95;67.00;;;;;;;1.50;93.45;103465.56;4700072;30;20075;-64
2023/01/25 06:18:57;;;;;;;80.32;67.47;;;;;;;1.48;93.71;103468.41;4678459;30;20058;-63
2023/01/25 06:21:43;;;;;;;82.82;68.80;;;;;;;1.45;93.13;103474.06;4696925;30;20056;-63
2023/01/25 06:24:11;;;;;;;86.45;71.30;;;;;;;1.43;92.96;103477.88;4714381;30;20183;-64
2023/01/25 06:26:39;;;;;;;81.15;69.78;;;;;;;1.36;93.28;103468.69;4699644;30;20081;-66
2023/01/25 06:29:06;;;;;;;79.10;67.80;;;;;;;1.26;93.43;103469.53;4716324;30;20073;-64
2023/01/25 06:31:34;;;;;;;90.47;74.10;;;;;;;1.04;94.51;103461.75;4717518;30;20088;-63
2023/01/25 06:34:05;;;;;;;89.60;72.32;;;;;;;0.78;96.02;103462.25;4701588;30;20161;-63
2023/01/25 06:36:33;;;;;;;89.28;74.80;;;;;;;0.80;97.56;103460.28;4720175;30;20065;-63
2023/01/25 06:39:04;;;;;;;87.75;73.65;;;;;;;0.87;96.55;103460.59;4730407;30;20109;-67
2023/01/25 06:41:42;;;;;;;87.65;73.28;;;;;;;0.88;96.91;103459.59;4716239;30;20076;-64
2023/01/25 06:44:10;;;;;;;89.53;73.43;;;;;;;0.98;97.71;103465.81;4723042;30;20049;-64
2023/01/25 06:46:37;;;;;;;89.00;72.35;;;;;;;1.12;97.67;103469.94;4724862;30;20064;-65
2023/01/25 06:49:05;;;;;;;83.45;71.32;;;;;;;1.22;96.85;103462.75;4705600;30;20049;-64
2023/01/25 06:51:33;;;;;;;82.82;68.93;;;;;;;1.34;96.70;103459.91;4052783;30;10000568;-65
2023/01/25 06:54:03;;;;;;;86.25;71.40;;;;;;;1.41;96.16;103453.00;4715556;30;20392;-64
2023/01/25 06:56:31;;;;;;;86.20;73.50;;;;;;;1.45;95.77;103457.94;4713824;30;20484;-64
2023/01/25 06:58:59;;;;;;;87.88;73.15;;;;;;;1.48;94.99;103454.13;4716289;30;20060;-63
2023/01/25 07:01:29;;;;;;;91.07;74.10;;;;;;;1.47;94.78;103463.19;4715416;30;20080;-65
2023/01/25 07:03:58;;;;;;;89.07;72.93;;;;;;;1.47;94.54;103452.44;4715136;30;20061;-66
2023/01/25 07:06:32;;;;;;;87.95;74.05;;;;;;;1.46;94.39;103459.63;4712933;30;20053;-65
2023/01/25 07:09:07;;;;;;;90.85;74.18;;;;;;;1.48;94.62;103452.28;4714813;30;20057;-66
2023/01/25 07:11:35;;;;;;;95.22;77.53;;;;;;;1.50;94.24;103449.47;4717588;30;20061;-65
2023/01/25 07:14:04;;;;;;;92.07;76.10;;;;;;;1.48;93.80;103454.13;4716559;30;20104;-66
2023/01/25 07:16:35;;;;;;;87.68;73.55;;;;;;;1.44;93.96;103458.06;4715828;30;20065;-64
2023/01/25 07:19:04;;;;;;;88.28;73.38;;;;;;;1.46;94.45;103458.78;4698513;30;20070;-63
2023/01/25 07:21:33;;;;;;;83.65;71.15;;;;;;;1.49;94.50;103459.38;4708025;30;20115;-66
2023/01/25 07:24:02;;;;;;;90.07;74.28;;;;;;;1.51;94.10;103455.66;4700500;30;20177;-65
2023/01/25 07:26:30;;;;;;;90.72;75.32;;;;;;;1.46;93.87;103464.16;4713103;30;20052;-65
2023/01/25 07:28:59;;;;;;;89.20;74.70;;;;;;;1.43;93.96;103453.69;4699044;30;20657;-64
2023/01/25 07:31:28;;;;;;;92.90;77.40;;;;;;;1.42;94.22;103457.38;4715683;30;20054;-62
2023/01/25 07:33:57;;;;;;;90.53;74.75;;;;;;;1.41;94.29;103453.84;4687379;30;20053;-63
2023/01/25 07:36:25;;;;;;;89.10;74.40;;;;;;;1.41;94.20;103442.25;4699873;30;20140;-64
2023/01/25 07:38:57;;;;;;;92.95;75.32;;;;;;;1.40;94.15;103437.88;4717509;30;20057;-62
2023/01/25 07:41:26;;;;;;;87.70;72.13;;;;;;;1.42;93.81;103436.75;4718755;30;20091;-64
2023/01/25 07:43:54;;;;;;;89.90;74.97;;;;;;;1.40;93.35;103440.56;4718481;30;20063;-63
2023/01/25 07:46:33;;;;;;;96.57;76.57;;;;;;;1.31;92.90;103436.88;4702174;30;20439;-63
2023/01/25 07:49:01;;;;;;;89.20;72.05;;;;;;;1.27;93.25;103428.28;4716555;30;20057;-64
2023/01/25 07:51:29;;;;;;;87.22;73.60;;;;;;;1.26;93.57;103437.31;4717713;30;20530;-66
2023/01/25 07:54:03;;;;;;;87.78;72.07;;;;;;;1.27;93.65;103435.47;4716277;30;20496;-68
2023/01/25 07:56:36;;;;;;;89.05;73.20;;;;;;;1.25;93.26;103441.00;4717673;30;20434;-63
2023/01/25 07:59:07;;;;;;;92.53;75.20;;;;;;;1.12;92.87;103443.09;4716083;30;20045;-66
2023/01/25 08:01:35;;;;;;;90.32;75.47;;;;;;;1.04;93.47;103448.34;4718665;30;20103;-64
2023/01/25 08:04:04;;;;;;;89.75;73.95;;;;;;;1.01;94.33;103437.84;4718934;30;20065;-65
2023/01/25 08:06:37;;;;;;;88.05;72.20;;;;;;;0.99;94.53;103435.31;4715793;30;20065;-65
2023/01/25 08:09:13;;;;;;;87.30;72.93;;;;;;;1.01;94.85;103437.84;4702840;30;20523;-63
2023/01/25 08:11:41;;;;;;;90.20;72.28;;;;;;;1.03;95.25;103425.13;4714672;30;20577;-63
2023/01/25 08:14:10;;;;;;;87.40;72.93;;;;;;;1.08;95.47;103428.25;4689610;30;20499;-64
2023/01/25 08:16:38;;;;;;;90.38;73.32;;;;;;;1.11;95.09;103436.03;4716300;30;20053;-67
2023/01/25 08:19:08;;;;;;;88.85;71.10;;;;;;;1.14;94.76;103440.28;4688056;30;20562;-66
2023/01/25 08:21:36;;;;;;;87.20;71.32;;;;;;;1.14;94.85;103433.06;4718147;30;20075;-64
2023/01/25 08:24:05;;;;;;;90.13;73.70;;;;;;;1.13;94.65;103431.38;4716721;30;20092;-64
2023/01/25 08:26:35;;;;;;;86.53;72.57;;;;;;;1.18;95.21;103429.13;4714701;30;20061;-67
2023/01/25 08:29:04;;;;;;;86.47;72.18;;;;;;;1.22;94.97;103421.63;4660616;30;20057;-64
2023/01/25 08:31:33;;;;;;;84.40;70.78;;;;;;;1.26;95.30;103415.81;4716184;30;20049;-64
2023/01/25 08:34:01;;;;;;;85.20;70.90;;;;;;;1.33;95.07;103415.25;4717611;30;20467;-67
2023/01/25 08:36:29;;;;;;;89.40;73.22;;;;;;;1.32;94.53;103413.56;4703201;30;20069;-65
2023/01/25 08:38:59;;;;;;;90.63;75.07;;;;;;;1.29;94.89;103420.06;4718606;30;20057;-65
2023/01/25 08:41:28;;;;;;;86.40;72.40;;;;;;;1.26;94.26;103421.19;4712373;30;20097;-64
2023/01/25 08:43:56;;;;;;;87.30;73.85;;;;;;;1.20;93.92;103419.09;4713446;30;20068;-63
2023/01/25 08:46:29;;;;;;;92.13;76.03;;;;;;;1.16;94.85;103425.72;4696621;30;20500;-65
2023/01/25 08:49:00;;;;;;;95.78;80.63;;;;;;;1.07;94.75;103423.88;4692687;30;20522;-64
2023/01/25 08:51:28;;;;;;;93.70;76.10;;;;;;;1.02;95.00;103423.47;4716284;30;20059;-65
2023/01/25 08:53:55;;;;;;;94.60;79.93;;;;;;;0.96;95.49;103424.88;4716546;30;20053;-66
2023/01/25 08:56:23;;;;;;;87.75;72.38;;;;;;;0.97;95.54;103425.72;4714066;30;20123;-66
2023/01/25 08:58:51;;;;;;;94.38;76.57;;;;;;;0.93;95.37;103413.56;4718108;30;20081;-65
2023/01/25 09:01:19;;;;;;;87.80;72.53;;;;;;;0.89;95.25;103406.75;4701801;30;20053;-64
2023/01/25 09:03:49;;;;;;;88.20;71.13;;;;;;;0.93;96.01;103410.88;4716199;30;20120;-65
2023/01/25 09:06:19;;;;;;;85.95;71.10;;;;;;;0.96;95.96;103411.44;4716833;30;20116;-66
2023/01/25 09:08:47;;;;;;;88.78;72.85;;;;;;;0.98;95.86;103400.56;4717538;30;20060;-64
2023/01/25 09:11:22;;;;;;;94.32;75.55;;;;;;;1.03;95.96;103403.66;4698392;30;20061;-65
2023/01/25 09:13:49;;;;;;;95.30;75.70;;;;;;;1.04;95.55;103405.38;4715067;30;20136;-65
2023/01/25 09:16:27;;;;;;;93.38;74.43;;;;;;;1.03;95.39;103400.97;4716387;30;20107;-64
2023/01/25 09:19:01;;;;;;;90.63;74.38;;;;;;;1.06;96.28;103395.34;4702272;30;20132;-66
2023/01/25 09:21:29;;;;;;;93.88;77.13;;;;;;;0.96;95.83;103398.03;4700996;30;20084;-65
2023/01/25 09:23:58;;;;;;;94.75;74.70;;;;;;;0.93;96.84;103392.91;4717216;30;20045;-64
2023/01/25 09:26:37;;;;;;;95.82;79.53;;;;;;;0.82;96.44;103399.28;4714699;30;20152;-63
2023/01/25 09:29:06;;;;;;;96.35;81.15;;;;;;;0.81;96.66;103394.88;4717164;30;20201;-65
2023/01/25 09:31:38;;;;;;;93.50;73.55;;;;;;;0.88;96.98;103395.19;4702457;30;20053;-64
2023/01/25 09:34:33;;;;;;;100.03;73.28;;;;;;;1.01;96.48;103392.22;4714976;30;20400;-65
2023/01/25 09:37:00;;;;;;;87.75;71.28;;;;;;;1.05;96.22;103393.63;4688069;30;20495;-67
2023/01/25 09:39:28;;;;;;;93.70;73.53;;;;;;;1.09;96.01;103392.38;4717123;30;20064;-64
2023/01/25 09:42:23;;;;;;;90.75;72.53;;;;;;;1.13;95.49;103391.09;4718269;30;20053;-65
2023/01/25 09:45:30;;;;;;;87.93;71.22;;;;;;;1.15;95.51;103385.56;4718372;30;20388;-64
2023/01/25 09:48:16;;;;;;;96.45;79.38;;;;;;;1.11;95.47;103387.72;4650652;30;20090;-66
2023/01/25 09:51:19;;;;;;;96.40;79.60;;;;;;;0.95;95.95;103387.44;4664314;30;20061;-64
2023/01/25 09:53:49;;;;;;;99.20;78.38;;;;;;;0.92;96.52;103385.03;4626479;30;20709;-65
2023/01/25 09:56:23;;;;;;;96.63;78.25;;;;;;;0.90;96.10;103389.69;4673975;30;20592;-65
2023/01/25 09:58:54;;;;;;;100.05;76.50;;;;;;;0.84;96.09;103391.94;4702670;30;20063;-65
2023/01/25 10:01:52;;;;;;;93.30;74.82;;;;;;;0.85;96.06;103390.09;4717638;30;20396;-63
2023/01/25 10:04:24;;;;;;;95.63;75.40;;;;;;;0.83;95.59;103387.56;4702425;30;20081;-63
2023/01/25 10:06:53;;;;;;;89.55;71.53;;;;;;;0.82;96.37;103380.50;4688475;30;20071;-62
2023/01/25 10:09:48;;;;;;;88.60;70.80;;;;;;;0.85;95.85;103382.91;4703836;30;20053;-64
2023/01/25 10:12:21;;;;;;;88.63;69.60;;;;;;;0.92;96.66;103379.66;4705342;30;20053;-65
2023/01/25 10:14:49;;;;;;;91.55;72.32;;;;;;;0.96;95.49;103373.00;4722142;30;20045;-65
2023/01/25 10:17:22;;;;;;;86.60;69.30;;;;;;;0.93;95.71;103375.97;4709669;30;20053;-67
2023/01/25 10:20:07;;;;;;;89.20;70.53;;;;;;;0.92;95.44;103369.78;4710695;30;20080;-65
2023/01/25 10:22:44;;;;;;;89.03;70.50;;;;;;;0.94;95.37;103373.16;4706451;30;20495;-64
2023/01/25 10:25:22;;;;;;;88.95;70.63;;;;;;;0.92;95.46;103375.13;4725016;30;20498;-66
2023/01/25 10:27:50;;;;;;;91.97;72.80;;;;;;;0.91;95.83;103375.25;4724617;30;20139;-64
2023/01/25 10:30:28;;;;;;;85.55;68.30;;;;;;;0.92;95.60;103368.94;4726944;30;20065;-64
2023/01/25 10:33:01;;;;;;;87.63;69.55;;;;;;;0.93;95.75;103365.25;4691791;30;20084;-66
2023/01/25 10:35:35;;;;;;;86.68;69.47;;;;;;;0.97;95.54;103363.97;4705677;30;20116;-66
2023/01/25 10:38:14;;;;;;;87.97;69.55;;;;;;;1.00;95.50;103355.63;4691946;30;20461;-65
2023/01/25 10:40:47;;;;;;;86.22;69.47;;;;;;;0.97;94.91;103345.19;4706454;30;20487;-65
2023/01/25 10:43:18;;;;;;;82.88;67.32;;;;;;;0.91;94.56;103338.53;4705553;30;20057;-65
2023/01/25 10:45:47;;;;;;;84.05;67.82;;;;;;;0.90;94.76;103331.47;4719980;30;20480;-66
2023/01/25 10:48:19;;;;;;;82.05;65.85;;;;;;;0.91;95.35;103329.63;4705312;30;20132;-65
2023/01/25 10:50:49;;;;;;;83.80;66.20;;;;;;;0.95;95.47;103326.53;4690296;30;20057;-65
2023/01/25 10:53:42;;;;;;;87.18;68.05;;;;;;;0.98;95.28;103325.41;4705139;30;20132;-65
2023/01/25 10:56:25;;;;;;;89.53;70.60;;;;;;;0.94;94.76;103318.59;4705659;30;20053;-67
2023/01/25 10:59:06;;;;;;;87.10;70.18;;;;;;;0.90;95.91;103306.47;4720476;30;20151;-66
2023/01/25 11:01:35;;;;;;;90.53;74.97;;;;;;;0.85;95.16;103301.53;4708569;30;20487;-70
2023/01/25 11:04:03;;;;;;;92.22;74.03;;;;;;;0.78;95.99;103285.16;4704450;30;20056;-68
2023/01/25 11:06:35;;;;;;;92.65;76.15;;;;;;;0.79;95.75;103294.88;4719870;30;20068;-66
2023/01/25 11:09:29;;;;;;;98.03;76.00;;;;;;;0.85;96.76;103282.75;4722719;30;20056;-66
2023/01/25 11:11:58;;;;;;;99.28;76.65;;;;;;;0.85;96.66;103277.38;4718495;30;20087;-65
2023/01/25 11:14:27;;;;;;;98.03;76.57;;;;;;;0.93;96.68;103261.41;4719568;30;20127;-65
2023/01/25 11:16:57;;;;;;;93.93;75.85;;;;;;;0.97;96.37;103273.56;4702267;30;20057;-66
2023/01/25 11:19:35;;;;;;;102.95;80.22;;;;;;;0.95;95.59;103263.94;4691284;30;20136;-66
2023/01/25 11:22:24;;;;;;;100.10;81.55;;;;;;;0.92;96.59;103256.19;4704546;30;20057;-67
2023/01/25 11:24:52;;;;;;;97.32;75.97;;;;;;;0.94;96.14;103238.09;4718345;30;20064;-65
2023/01/25 11:27:22;;;;;;;92.10;70.32;;;;;;;0.90;95.30;103242.91;4690890;30;20056;-65
2023/01/25 11:30:09;;;;;;;94.45;71.55;;;;;;;0.88;95.70;103236.00;4719179;30;20091;-64
2023/01/25 11:32:39;;;;;;;96.38;73.20;;;;;;;0.89;95.93;103233.19;4718793;30;20061;-66
2023/01/25 11:35:14;;;;;;;90.57;70.68;;;;;;;0.89;95.32;103218.88;4718427;30;20056;-67
2023/01/25 11:37:49;;;;;;;95.57;73.20;;;;;;;0.89;95.83;103218.88;4053754;30;10000830;-66
2023/01/25 11:40:38;;;;;;;92.10;71.03;;;;;;;0.90;95.63;103209.84;4716989;30;20061;-66
2023/01/25 11:43:31;;;;;;;91.25;71.25;;;;;;;0.95;96.56;103207.59;4673935;30;20065;-66